sensor_id;sensor_type;location;lat;lon;timestamp;temperature;humidity
68354;DHT22;55274;43.060;25.618;2024-03-06T00:01:47;9.60;99.90
68354;DHT22;55274;43.060;25.618;2024-03-06T00:04:13;9.50;99.90
68354;DHT22;55274;43.060;25.618;2024-03-06T00:06:39;9.50;99.90
68354;DHT22;55274;43.060;25.618;2024-03-06T00:09:05;9.50;99.90
68354;DHT22;55274;43.060;25.618;2024-03-06T00:11:30;9.50;99.90
68354;DHT22;55274;43.060;25.618;2024-03-06T00:13:56;9.50;99.90
68354;DHT22;55274;43.060;25.618;2024-03-06T00:16:22;9.50;99.90
68354;DHT22;55274;43.060;25.618;2024-03-06T00:18:48;9.50;99.90
68354;DHT22;55274;43.060;25.618;2024-03-06T00:21:13;9.50;99.90
68354;DHT22;55274;43.060;25.618;2024-03-06T00:23:39;9.40;99.90
68354;DHT22;55274;43.060;25.618;2024-03-06T00:26:05;9.40;99.90
68354;DHT22;55274;43.060;25.618;2024-03-06T00:28:30;9.50;99.90
68354;DHT22;55274;43.060;25.618;2024-03-06T00:30:56;9.50;99.90
68354;DHT22;55274;43.060;25.618;2024-03-06T00:33:23;9.50;99.90
68354;DHT22;55274;43.060;25.618;2024-03-06T00:35:48;9.40;99.90
68354;DHT22;55274;43.060;25.618;2024-03-06T00:38:14;9.40;99.90
68354;DHT22;55274;43.060;25.618;2024-03-06T00:40:40;9.40;99.90
68354;DHT22;55274;43.060;25.618;2024-03-06T00:43:06;9.40;99.90
68354;DHT22;55274;43.060;25.618;2024-03-06T00:45:31;9.40;99.90
68354;DHT22;55274;43.060;25.618;2024-03-06T00:47:57;9.40;99.90
68354;DHT22;55274;43.060;25.618;2024-03-06T00:50:23;9.40;99.90
68354;DHT22;55274;43.060;25.618;2024-03-06T00:52:49;9.40;99.90
68354;DHT22;55274;43.060;25.618;2024-03-06T00:55:16;9.40;99.90
68354;DHT22;55274;43.060;25.618;2024-03-06T00:57:41;9.30;99.90
68354;DHT22;55274;43.060;25.618;2024-03-06T01:00:08;9.40;99.90
68354;DHT22;55274;43.060;25.618;2024-03-06T01:02:39;9.40;99.90
68354;DHT22;55274;43.060;25.618;2024-03-06T01:05:06;9.30;99.90
68354;DHT22;55274;43.060;25.618;2024-03-06T01:07:37;9.30;99.90
68354;DHT22;55274;43.060;25.618;2024-03-06T01:10:04;9.30;99.90
68354;DHT22;55274;43.060;25.618;2024-03-06T01:12:32;9.30;99.90
68354;DHT22;55274;43.060;25.618;2024-03-06T01:14:58;9.30;99.90
68354;DHT22;55274;43.060;25.618;2024-03-06T01:17:24;9.30;99.90
68354;DHT22;55274;43.060;25.618;2024-03-06T01:19:50;9.30;99.90
68354;DHT22;55274;43.060;25.618;2024-03-06T01:22:16;9.30;99.90
68354;DHT22;55274;43.060;25.618;2024-03-06T01:24:43;9.30;99.90
68354;DHT22;55274;43.060;25.618;2024-03-06T01:27:09;9.30;99.90
68354;DHT22;55274;43.060;25.618;2024-03-06T01:29:35;9.30;99.90
68354;DHT22;55274;43.060;25.618;2024-03-06T01:32:01;9.30;99.90
68354;DHT22;55274;43.060;25.618;2024-03-06T01:34:27;9.30;99.90
68354;DHT22;55274;43.060;25.618;2024-03-06T01:36:53;9.20;99.90
68354;DHT22;55274;43.060;25.618;2024-03-06T01:39:19;9.20;99.90
68354;DHT22;55274;43.060;25.618;2024-03-06T01:41:49;9.20;99.90
68354;DHT22;55274;43.060;25.618;2024-03-06T01:44:16;9.20;99.90
68354;DHT22;55274;43.060;25.618;2024-03-06T01:46:43;9.20;99.90
68354;DHT22;55274;43.060;25.618;2024-03-06T01:49:11;9.20;99.90
68354;DHT22;55274;43.060;25.618;2024-03-06T01:51:40;9.20;99.90
68354;DHT22;55274;43.060;25.618;2024-03-06T01:54:06;9.10;99.90
68354;DHT22;55274;43.060;25.618;2024-03-06T01:56:34;9.10;99.90
68354;DHT22;55274;43.060;25.618;2024-03-06T01:59:01;9.10;99.90
68354;DHT22;55274;43.060;25.618;2024-03-06T02:01:28;9.10;99.90
68354;DHT22;55274;43.060;25.618;2024-03-06T02:03:54;9.00;99.90
68354;DHT22;55274;43.060;25.618;2024-03-06T02:06:21;9.00;99.90
68354;DHT22;55274;43.060;25.618;2024-03-06T02:08:47;9.00;99.90
68354;DHT22;55274;43.060;25.618;2024-03-06T02:11:13;8.90;99.90
68354;DHT22;55274;43.060;25.618;2024-03-06T02:13:41;8.90;99.90
68354;DHT22;55274;43.060;25.618;2024-03-06T02:16:07;8.90;99.90
68354;DHT22;55274;43.060;25.618;2024-03-06T02:18:33;8.90;99.90
68354;DHT22;55274;43.060;25.618;2024-03-06T02:20:59;8.90;99.90
68354;DHT22;55274;43.060;25.618;2024-03-06T02:23:24;8.90;99.90
68354;DHT22;55274;43.060;25.618;2024-03-06T02:25:51;8.90;99.90
68354;DHT22;55274;43.060;25.618;2024-03-06T02:28:17;8.80;99.90
68354;DHT22;55274;43.060;25.618;2024-03-06T02:30:43;8.80;99.90
68354;DHT22;55274;43.060;25.618;2024-03-06T02:33:09;8.70;99.90
68354;DHT22;55274;43.060;25.618;2024-03-06T02:35:36;8.70;99.90
68354;DHT22;55274;43.060;25.618;2024-03-06T02:38:03;8.70;99.90
68354;DHT22;55274;43.060;25.618;2024-03-06T02:40:33;8.60;99.90
68354;DHT22;55274;43.060;25.618;2024-03-06T02:42:58;8.60;99.90
68354;DHT22;55274;43.060;25.618;2024-03-06T02:45:24;8.60;99.90
68354;DHT22;55274;43.060;25.618;2024-03-06T02:47:50;8.50;99.90
68354;DHT22;55274;43.060;25.618;2024-03-06T02:50:16;8.50;99.90
68354;DHT22;55274;43.060;25.618;2024-03-06T02:52:42;8.50;99.90
68354;DHT22;55274;43.060;25.618;2024-03-06T02:55:07;8.50;99.90
68354;DHT22;55274;43.060;25.618;2024-03-06T02:57:33;8.50;99.90
68354;DHT22;55274;43.060;25.618;2024-03-06T02:59:59;8.50;99.90
68354;DHT22;55274;43.060;25.618;2024-03-06T03:02:25;8.50;99.90
68354;DHT22;55274;43.060;25.618;2024-03-06T03:04:51;8.40;99.90
68354;DHT22;55274;43.060;25.618;2024-03-06T03:07:18;8.40;99.90
68354;DHT22;55274;43.060;25.618;2024-03-06T03:09:45;8.40;99.90
68354;DHT22;55274;43.060;25.618;2024-03-06T03:12:11;8.40;99.90
68354;DHT22;55274;43.060;25.618;2024-03-06T03:14:37;8.40;99.90
68354;DHT22;55274;43.060;25.618;2024-03-06T03:17:05;8.40;99.90
68354;DHT22;55274;43.060;25.618;2024-03-06T03:19:33;8.30;99.90
68354;DHT22;55274;43.060;25.618;2024-03-06T03:21:59;8.40;99.90
68354;DHT22;55274;43.060;25.618;2024-03-06T03:24:25;8.40;99.90
68354;DHT22;55274;43.060;25.618;2024-03-06T03:26:52;8.40;99.90
68354;DHT22;55274;43.060;25.618;2024-03-06T03:29:18;8.40;99.90
68354;DHT22;55274;43.060;25.618;2024-03-06T03:31:44;8.40;99.90
68354;DHT22;55274;43.060;25.618;2024-03-06T03:34:10;8.40;99.90
68354;DHT22;55274;43.060;25.618;2024-03-06T03:36:42;8.30;99.90
68354;DHT22;55274;43.060;25.618;2024-03-06T03:39:10;8.30;99.90
68354;DHT22;55274;43.060;25.618;2024-03-06T03:41:48;8.20;99.90
68354;DHT22;55274;43.060;25.618;2024-03-06T03:44:17;8.20;99.90
68354;DHT22;55274;43.060;25.618;2024-03-06T03:46:44;8.20;99.90
68354;DHT22;55274;43.060;25.618;2024-03-06T03:49:11;8.20;99.90
68354;DHT22;55274;43.060;25.618;2024-03-06T03:51:40;8.20;99.90
68354;DHT22;55274;43.060;25.618;2024-03-06T03:54:06;8.30;99.90
68354;DHT22;55274;43.060;25.618;2024-03-06T03:56:32;8.30;99.90
68354;DHT22;55274;43.060;25.618;2024-03-06T03:58:59;8.30;99.90
68354;DHT22;55274;43.060;25.618;2024-03-06T04:01:27;8.30;99.90
68354;DHT22;55274;43.060;25.618;2024-03-06T04:03:53;8.30;99.90
68354;DHT22;55274;43.060;25.618;2024-03-06T04:06:19;8.30;99.90
68354;DHT22;55274;43.060;25.618;2024-03-06T04:08:45;8.30;99.90
68354;DHT22;55274;43.060;25.618;2024-03-06T04:11:11;8.20;99.90
68354;DHT22;55274;43.060;25.618;2024-03-06T04:13:37;8.20;99.90
68354;DHT22;55274;43.060;25.618;2024-03-06T04:16:04;8.20;99.90
68354;DHT22;55274;43.060;25.618;2024-03-06T04:18:31;8.30;99.90
68354;DHT22;55274;43.060;25.618;2024-03-06T04:21:06;8.30;99.90
68354;DHT22;55274;43.060;25.618;2024-03-06T04:23:33;8.30;99.90
68354;DHT22;55274;43.060;25.618;2024-03-06T04:25:59;8.20;99.90
68354;DHT22;55274;43.060;25.618;2024-03-06T04:28:25;8.20;99.90
68354;DHT22;55274;43.060;25.618;2024-03-06T04:30:51;8.20;99.90
68354;DHT22;55274;43.060;25.618;2024-03-06T04:33:17;8.20;99.90
68354;DHT22;55274;43.060;25.618;2024-03-06T04:35:43;8.30;99.90
68354;DHT22;55274;43.060;25.618;2024-03-06T04:38:09;8.30;99.90
68354;DHT22;55274;43.060;25.618;2024-03-06T04:40:34;8.30;99.90
68354;DHT22;55274;43.060;25.618;2024-03-06T04:43:01;8.20;99.90
68354;DHT22;55274;43.060;25.618;2024-03-06T04:45:27;8.30;99.90
68354;DHT22;55274;43.060;25.618;2024-03-06T04:47:55;8.20;99.90
68354;DHT22;55274;43.060;25.618;2024-03-06T04:50:20;8.20;99.90
68354;DHT22;55274;43.060;25.618;2024-03-06T04:52:46;8.10;99.90
68354;DHT22;55274;43.060;25.618;2024-03-06T04:55:13;8.20;99.90
68354;DHT22;55274;43.060;25.618;2024-03-06T04:57:43;8.10;99.90
68354;DHT22;55274;43.060;25.618;2024-03-06T05:00:10;8.20;99.90
68354;DHT22;55274;43.060;25.618;2024-03-06T05:02:36;8.30;99.90
68354;DHT22;55274;43.060;25.618;2024-03-06T05:05:04;8.20;99.90
68354;DHT22;55274;43.060;25.618;2024-03-06T05:07:31;8.20;99.90
68354;DHT22;55274;43.060;25.618;2024-03-06T05:09:57;8.20;99.90
68354;DHT22;55274;43.060;25.618;2024-03-06T05:12:24;8.30;99.90
68354;DHT22;55274;43.060;25.618;2024-03-06T05:14:51;8.20;99.90
68354;DHT22;55274;43.060;25.618;2024-03-06T05:17:17;8.30;99.90
68354;DHT22;55274;43.060;25.618;2024-03-06T05:19:47;8.30;99.90
68354;DHT22;55274;43.060;25.618;2024-03-06T05:22:15;8.30;99.90
68354;DHT22;55274;43.060;25.618;2024-03-06T05:24:44;8.20;99.90
68354;DHT22;55274;43.060;25.618;2024-03-06T05:27:10;8.30;99.90
68354;DHT22;55274;43.060;25.618;2024-03-06T05:29:43;8.30;99.90
68354;DHT22;55274;43.060;25.618;2024-03-06T05:32:09;8.30;99.90
68354;DHT22;55274;43.060;25.618;2024-03-06T05:34:35;8.30;99.90
68354;DHT22;55274;43.060;25.618;2024-03-06T05:37:01;8.30;99.90
68354;DHT22;55274;43.060;25.618;2024-03-06T05:39:27;8.30;99.90
68354;DHT22;55274;43.060;25.618;2024-03-06T05:41:59;8.30;99.90
68354;DHT22;55274;43.060;25.618;2024-03-06T05:44:25;8.30;99.90
68354;DHT22;55274;43.060;25.618;2024-03-06T05:46:52;8.30;99.90
68354;DHT22;55274;43.060;25.618;2024-03-06T05:49:17;8.30;99.90
68354;DHT22;55274;43.060;25.618;2024-03-06T05:51:44;8.40;99.90
68354;DHT22;55274;43.060;25.618;2024-03-06T05:54:11;8.40;99.90
68354;DHT22;55274;43.060;25.618;2024-03-06T05:56:36;8.40;99.90
68354;DHT22;55274;43.060;25.618;2024-03-06T05:59:04;8.40;99.90
68354;DHT22;55274;43.060;25.618;2024-03-06T06:01:34;8.40;99.90
68354;DHT22;55274;43.060;25.618;2024-03-06T06:04:01;8.40;99.90
68354;DHT22;55274;43.060;25.618;2024-03-06T06:06:27;8.40;99.90
68354;DHT22;55274;43.060;25.618;2024-03-06T06:08:53;8.40;99.90
68354;DHT22;55274;43.060;25.618;2024-03-06T06:11:19;8.40;99.90
68354;DHT22;55274;43.060;25.618;2024-03-06T06:13:45;8.40;99.90
68354;DHT22;55274;43.060;25.618;2024-03-06T06:16:12;8.40;99.90
68354;DHT22;55274;43.060;25.618;2024-03-06T06:18:40;8.40;99.90
68354;DHT22;55274;43.060;25.618;2024-03-06T06:21:08;8.40;99.90
68354;DHT22;55274;43.060;25.618;2024-03-06T06:23:34;8.40;99.90
68354;DHT22;55274;43.060;25.618;2024-03-06T06:26:00;8.40;99.90
68354;DHT22;55274;43.060;25.618;2024-03-06T06:28:26;8.40;99.90
68354;DHT22;55274;43.060;25.618;2024-03-06T06:30:52;8.40;99.90
68354;DHT22;55274;43.060;25.618;2024-03-06T06:33:19;8.40;99.90
68354;DHT22;55274;43.060;25.618;2024-03-06T06:35:45;8.40;99.90
68354;DHT22;55274;43.060;25.618;2024-03-06T06:38:10;8.40;99.90
68354;DHT22;55274;43.060;25.618;2024-03-06T06:40:36;8.40;99.90
68354;DHT22;55274;43.060;25.618;2024-03-06T06:43:02;8.40;99.90
68354;DHT22;55274;43.060;25.618;2024-03-06T06:45:28;8.40;99.90
68354;DHT22;55274;43.060;25.618;2024-03-06T06:47:53;8.40;99.90
68354;DHT22;55274;43.060;25.618;2024-03-06T06:50:19;8.30;99.90
68354;DHT22;55274;43.060;25.618;2024-03-06T06:52:48;8.40;99.90
68354;DHT22;55274;43.060;25.618;2024-03-06T06:55:14;8.40;99.90
68354;DHT22;55274;43.060;25.618;2024-03-06T06:57:40;8.40;99.90
68354;DHT22;55274;43.060;25.618;2024-03-06T07:00:06;8.50;99.90
68354;DHT22;55274;43.060;25.618;2024-03-06T07:02:42;8.50;99.90
68354;DHT22;55274;43.060;25.618;2024-03-06T07:05:08;8.50;99.90
68354;DHT22;55274;43.060;25.618;2024-03-06T07:07:35;8.50;99.90
68354;DHT22;55274;43.060;25.618;2024-03-06T07:10:01;8.50;99.90
68354;DHT22;55274;43.060;25.618;2024-03-06T07:12:28;8.60;99.90
68354;DHT22;55274;43.060;25.618;2024-03-06T07:14:54;8.60;99.90
68354;DHT22;55274;43.060;25.618;2024-03-06T07:17:19;8.60;99.90
68354;DHT22;55274;43.060;25.618;2024-03-06T07:19:45;8.60;99.90
68354;DHT22;55274;43.060;25.618;2024-03-06T07:22:11;8.60;99.90
68354;DHT22;55274;43.060;25.618;2024-03-06T07:24:37;8.70;99.90
68354;DHT22;55274;43.060;25.618;2024-03-06T07:27:03;8.70;99.90
68354;DHT22;55274;43.060;25.618;2024-03-06T07:29:29;8.70;99.90
68354;DHT22;55274;43.060;25.618;2024-03-06T07:31:55;8.80;99.90
68354;DHT22;55274;43.060;25.618;2024-03-06T07:34:20;8.80;99.90
68354;DHT22;55274;43.060;25.618;2024-03-06T07:36:49;8.80;99.90
68354;DHT22;55274;43.060;25.618;2024-03-06T07:39:21;8.90;99.90
68354;DHT22;55274;43.060;25.618;2024-03-06T07:41:47;8.90;99.90
68354;DHT22;55274;43.060;25.618;2024-03-06T07:44:13;8.90;99.90
68354;DHT22;55274;43.060;25.618;2024-03-06T07:46:39;8.90;99.90
68354;DHT22;55274;43.060;25.618;2024-03-06T07:49:05;8.90;99.90
68354;DHT22;55274;43.060;25.618;2024-03-06T07:51:32;9.00;99.90
68354;DHT22;55274;43.060;25.618;2024-03-06T07:53:57;9.00;99.90
68354;DHT22;55274;43.060;25.618;2024-03-06T07:56:27;9.00;99.90
68354;DHT22;55274;43.060;25.618;2024-03-06T07:58:54;9.10;99.90
68354;DHT22;55274;43.060;25.618;2024-03-06T08:01:20;9.10;99.90
68354;DHT22;55274;43.060;25.618;2024-03-06T08:03:46;9.10;99.90
68354;DHT22;55274;43.060;25.618;2024-03-06T08:06:12;9.20;99.90
68354;DHT22;55274;43.060;25.618;2024-03-06T08:08:42;9.30;99.90
68354;DHT22;55274;43.060;25.618;2024-03-06T08:11:10;9.30;99.90
68354;DHT22;55274;43.060;25.618;2024-03-06T08:13:37;9.40;99.90
68354;DHT22;55274;43.060;25.618;2024-03-06T08:16:04;9.50;99.90
68354;DHT22;55274;43.060;25.618;2024-03-06T08:18:30;9.50;99.90
68354;DHT22;55274;43.060;25.618;2024-03-06T08:20:56;9.60;99.90
68354;DHT22;55274;43.060;25.618;2024-03-06T08:23:22;9.70;99.90
68354;DHT22;55274;43.060;25.618;2024-03-06T08:25:49;9.80;99.90
68354;DHT22;55274;43.060;25.618;2024-03-06T08:28:15;9.80;99.90
68354;DHT22;55274;43.060;25.618;2024-03-06T08:30:41;9.90;99.90
68354;DHT22;55274;43.060;25.618;2024-03-06T08:33:07;10.00;99.90
68354;DHT22;55274;43.060;25.618;2024-03-06T08:35:33;10.10;99.90
68354;DHT22;55274;43.060;25.618;2024-03-06T08:38:00;10.10;99.90
68354;DHT22;55274;43.060;25.618;2024-03-06T08:40:25;10.10;99.90
68354;DHT22;55274;43.060;25.618;2024-03-06T08:42:52;10.10;99.90
68354;DHT22;55274;43.060;25.618;2024-03-06T08:45:19;10.10;99.90
68354;DHT22;55274;43.060;25.618;2024-03-06T08:47:45;10.10;99.90
68354;DHT22;55274;43.060;25.618;2024-03-06T08:50:12;10.10;99.90
68354;DHT22;55274;43.060;25.618;2024-03-06T08:52:38;10.10;99.90
68354;DHT22;55274;43.060;25.618;2024-03-06T08:55:04;10.10;99.90
68354;DHT22;55274;43.060;25.618;2024-03-06T08:57:31;10.00;99.90
68354;DHT22;55274;43.060;25.618;2024-03-06T08:59:58;10.00;99.90
68354;DHT22;55274;43.060;25.618;2024-03-06T09:02:24;10.00;99.90
68354;DHT22;55274;43.060;25.618;2024-03-06T09:04:51;10.10;99.90
68354;DHT22;55274;43.060;25.618;2024-03-06T09:07:18;10.10;99.90
68354;DHT22;55274;43.060;25.618;2024-03-06T09:09:44;10.10;99.90
68354;DHT22;55274;43.060;25.618;2024-03-06T09:12:11;10.20;99.90
68354;DHT22;55274;43.060;25.618;2024-03-06T09:14:37;10.10;99.90
68354;DHT22;55274;43.060;25.618;2024-03-06T09:17:04;10.20;99.90
68354;DHT22;55274;43.060;25.618;2024-03-06T09:19:31;10.20;99.90
68354;DHT22;55274;43.060;25.618;2024-03-06T09:21:58;10.30;99.90
68354;DHT22;55274;43.060;25.618;2024-03-06T09:24:24;10.30;99.90
68354;DHT22;55274;43.060;25.618;2024-03-06T09:26:53;10.20;99.90
68354;DHT22;55274;43.060;25.618;2024-03-06T09:29:19;10.30;99.90
68354;DHT22;55274;43.060;25.618;2024-03-06T09:31:46;10.30;99.90
68354;DHT22;55274;43.060;25.618;2024-03-06T09:34:14;10.40;99.90
68354;DHT22;55274;43.060;25.618;2024-03-06T09:36:49;10.40;99.90
68354;DHT22;55274;43.060;25.618;2024-03-06T09:39:17;10.40;99.90
68354;DHT22;55274;43.060;25.618;2024-03-06T09:41:46;10.50;99.90
68354;DHT22;55274;43.060;25.618;2024-03-06T09:44:13;10.50;99.90
68354;DHT22;55274;43.060;25.618;2024-03-06T09:46:43;10.50;99.90
68354;DHT22;55274;43.060;25.618;2024-03-06T09:49:19;10.50;99.90
68354;DHT22;55274;43.060;25.618;2024-03-06T09:51:46;10.60;99.90
68354;DHT22;55274;43.060;25.618;2024-03-06T09:54:14;10.70;99.90
68354;DHT22;55274;43.060;25.618;2024-03-06T09:56:49;10.70;99.90
68354;DHT22;55274;43.060;25.618;2024-03-06T09:59:15;10.70;99.90
68354;DHT22;55274;43.060;25.618;2024-03-06T10:01:53;10.70;99.90
68354;DHT22;55274;43.060;25.618;2024-03-06T10:04:26;10.80;99.90
68354;DHT22;55274;43.060;25.618;2024-03-06T10:06:59;10.80;99.90
68354;DHT22;55274;43.060;25.618;2024-03-06T10:09:27;10.80;99.90
68354;DHT22;55274;43.060;25.618;2024-03-06T10:11:56;11.00;99.90
68354;DHT22;55274;43.060;25.618;2024-03-06T10:14:25;11.00;99.90
68354;DHT22;55274;43.060;25.618;2024-03-06T10:16:56;11.20;99.90
68354;DHT22;55274;43.060;25.618;2024-03-06T10:19:27;11.20;99.90
68354;DHT22;55274;43.060;25.618;2024-03-06T10:21:54;11.30;99.90
68354;DHT22;55274;43.060;25.618;2024-03-06T10:24:20;11.60;99.90
68354;DHT22;55274;43.060;25.618;2024-03-06T10:26:47;11.70;99.90
68354;DHT22;55274;43.060;25.618;2024-03-06T10:29:17;11.80;99.90
68354;DHT22;55274;43.060;25.618;2024-03-06T10:31:54;11.90;99.90
68354;DHT22;55274;43.060;25.618;2024-03-06T10:34:21;12.00;99.90
68354;DHT22;55274;43.060;25.618;2024-03-06T10:36:58;12.00;99.90
68354;DHT22;55274;43.060;25.618;2024-03-06T10:39:25;12.10;99.90
68354;DHT22;55274;43.060;25.618;2024-03-06T10:41:55;12.10;99.90
68354;DHT22;55274;43.060;25.618;2024-03-06T10:44:30;12.10;99.90
68354;DHT22;55274;43.060;25.618;2024-03-06T10:49:30;11.90;99.90
68354;DHT22;55274;43.060;25.618;2024-03-06T10:52:05;11.90;99.90
68354;DHT22;55274;43.060;25.618;2024-03-06T10:54:51;12.00;99.90
68354;DHT22;55274;43.060;25.618;2024-03-06T10:57:18;12.10;99.90
68354;DHT22;55274;43.060;25.618;2024-03-06T10:59:45;12.20;99.90
68354;DHT22;55274;43.060;25.618;2024-03-06T11:02:11;12.20;99.90
68354;DHT22;55274;43.060;25.618;2024-03-06T11:04:39;12.30;99.90
68354;DHT22;55274;43.060;25.618;2024-03-06T11:07:05;12.30;99.90
68354;DHT22;55274;43.060;25.618;2024-03-06T11:09:36;12.30;99.90
68354;DHT22;55274;43.060;25.618;2024-03-06T11:12:03;12.40;99.90
68354;DHT22;55274;43.060;25.618;2024-03-06T11:14:32;12.30;99.90
68354;DHT22;55274;43.060;25.618;2024-03-06T11:19:32;12.10;99.90
68354;DHT22;55274;43.060;25.618;2024-03-06T11:21:58;11.90;99.90
68354;DHT22;55274;43.060;25.618;2024-03-06T11:24:34;11.90;99.90
68354;DHT22;55274;43.060;25.618;2024-03-06T11:27:03;11.80;99.90
68354;DHT22;55274;43.060;25.618;2024-03-06T11:30:08;11.80;99.90
68354;DHT22;55274;43.060;25.618;2024-03-06T11:32:58;11.80;99.90
68354;DHT22;55274;43.060;25.618;2024-03-06T11:35:24;11.70;99.90
68354;DHT22;55274;43.060;25.618;2024-03-06T11:37:50;11.70;99.90
68354;DHT22;55274;43.060;25.618;2024-03-06T11:40:23;11.70;99.90
68354;DHT22;55274;43.060;25.618;2024-03-06T11:42:52;11.60;99.90
68354;DHT22;55274;43.060;25.618;2024-03-06T11:45:19;11.70;99.90
68354;DHT22;55274;43.060;25.618;2024-03-06T11:48:02;11.70;99.90
68354;DHT22;55274;43.060;25.618;2024-03-06T11:50:29;11.80;99.90
68354;DHT22;55274;43.060;25.618;2024-03-06T11:52:58;11.90;99.90
68354;DHT22;55274;43.060;25.618;2024-03-06T11:55:24;12.10;99.90
68354;DHT22;55274;43.060;25.618;2024-03-06T11:57:53;12.30;99.90
68354;DHT22;55274;43.060;25.618;2024-03-06T12:00:22;12.50;99.90
68354;DHT22;55274;43.060;25.618;2024-03-06T12:02:49;12.70;99.90
68354;DHT22;55274;43.060;25.618;2024-03-06T12:05:15;12.60;99.90
68354;DHT22;55274;43.060;25.618;2024-03-06T12:07:49;12.50;99.90
68354;DHT22;55274;43.060;25.618;2024-03-06T12:10:16;12.20;99.90
68354;DHT22;55274;43.060;25.618;2024-03-06T12:12:42;12.10;99.90
68354;DHT22;55274;43.060;25.618;2024-03-06T12:15:10;12.00;99.90
68354;DHT22;55274;43.060;25.618;2024-03-06T12:17:48;11.90;99.90
68354;DHT22;55274;43.060;25.618;2024-03-06T12:20:17;11.90;99.90
68354;DHT22;55274;43.060;25.618;2024-03-06T12:22:51;11.80;99.90
68354;DHT22;55274;43.060;25.618;2024-03-06T12:25:24;11.70;99.90
68354;DHT22;55274;43.060;25.618;2024-03-06T12:27:51;11.70;99.90
68354;DHT22;55274;43.060;25.618;2024-03-06T12:30:18;11.80;99.90
68354;DHT22;55274;43.060;25.618;2024-03-06T12:32:45;11.80;99.90
68354;DHT22;55274;43.060;25.618;2024-03-06T12:35:11;11.80;99.90
68354;DHT22;55274;43.060;25.618;2024-03-06T12:37:36;11.80;99.90
68354;DHT22;55274;43.060;25.618;2024-03-06T12:40:03;11.80;99.90
68354;DHT22;55274;43.060;25.618;2024-03-06T12:42:38;11.90;99.90
68354;DHT22;55274;43.060;25.618;2024-03-06T12:45:05;11.90;99.90
68354;DHT22;55274;43.060;25.618;2024-03-06T12:47:32;11.80;99.90
68354;DHT22;55274;43.060;25.618;2024-03-06T12:49:58;11.90;99.90
68354;DHT22;55274;43.060;25.618;2024-03-06T12:52:24;12.00;99.90
68354;DHT22;55274;43.060;25.618;2024-03-06T12:54:50;11.90;99.90
68354;DHT22;55274;43.060;25.618;2024-03-06T12:57:16;12.00;99.90
68354;DHT22;55274;43.060;25.618;2024-03-06T12:59:41;12.00;99.90
68354;DHT22;55274;43.060;25.618;2024-03-06T13:02:07;12.00;99.90
68354;DHT22;55274;43.060;25.618;2024-03-06T13:04:33;11.90;99.90
68354;DHT22;55274;43.060;25.618;2024-03-06T13:06:59;11.90;99.90
68354;DHT22;55274;43.060;25.618;2024-03-06T13:09:24;11.90;99.90
68354;DHT22;55274;43.060;25.618;2024-03-06T13:11:50;11.90;99.90
68354;DHT22;55274;43.060;25.618;2024-03-06T13:14:16;11.90;99.90
68354;DHT22;55274;43.060;25.618;2024-03-06T13:16:42;11.90;99.90
68354;DHT22;55274;43.060;25.618;2024-03-06T13:19:07;11.80;99.90
68354;DHT22;55274;43.060;25.618;2024-03-06T13:21:33;11.80;99.90
68354;DHT22;55274;43.060;25.618;2024-03-06T13:23:59;11.80;99.90
68354;DHT22;55274;43.060;25.618;2024-03-06T13:26:24;11.90;99.90
68354;DHT22;55274;43.060;25.618;2024-03-06T13:28:50;11.90;99.90
68354;DHT22;55274;43.060;25.618;2024-03-06T13:31:16;12.00;99.90
68354;DHT22;55274;43.060;25.618;2024-03-06T13:33:42;12.00;99.90
68354;DHT22;55274;43.060;25.618;2024-03-06T13:36:08;11.90;99.90
68354;DHT22;55274;43.060;25.618;2024-03-06T13:38:34;12.00;99.90
68354;DHT22;55274;43.060;25.618;2024-03-06T13:41:00;12.00;99.90
68354;DHT22;55274;43.060;25.618;2024-03-06T13:43:29;12.10;99.90
68354;DHT22;55274;43.060;25.618;2024-03-06T13:45:55;12.10;99.90
68354;DHT22;55274;43.060;25.618;2024-03-06T13:48:20;12.10;99.90
68354;DHT22;55274;43.060;25.618;2024-03-06T13:50:47;12.20;99.90
68354;DHT22;55274;43.060;25.618;2024-03-06T13:53:13;12.20;99.90
68354;DHT22;55274;43.060;25.618;2024-03-06T13:55:39;12.20;99.90
68354;DHT22;55274;43.060;25.618;2024-03-06T13:58:06;12.30;99.90
68354;DHT22;55274;43.060;25.618;2024-03-06T14:00:32;12.40;99.90
68354;DHT22;55274;43.060;25.618;2024-03-06T14:03:00;12.40;99.90
68354;DHT22;55274;43.060;25.618;2024-03-06T14:05:25;12.30;99.90
68354;DHT22;55274;43.060;25.618;2024-03-06T14:07:52;12.40;99.90
68354;DHT22;55274;43.060;25.618;2024-03-06T14:10:18;12.40;99.90
68354;DHT22;55274;43.060;25.618;2024-03-06T14:12:46;12.30;99.90
68354;DHT22;55274;43.060;25.618;2024-03-06T14:15:11;12.30;99.90
68354;DHT22;55274;43.060;25.618;2024-03-06T14:17:41;12.30;99.90
68354;DHT22;55274;43.060;25.618;2024-03-06T14:20:08;12.30;99.90
68354;DHT22;55274;43.060;25.618;2024-03-06T14:22:34;12.30;99.90
68354;DHT22;55274;43.060;25.618;2024-03-06T14:25:01;12.30;99.90
68354;DHT22;55274;43.060;25.618;2024-03-06T14:27:26;12.30;99.90
68354;DHT22;55274;43.060;25.618;2024-03-06T14:29:52;12.40;99.90
68354;DHT22;55274;43.060;25.618;2024-03-06T14:32:20;12.40;99.90
68354;DHT22;55274;43.060;25.618;2024-03-06T14:34:45;12.40;99.90
68354;DHT22;55274;43.060;25.618;2024-03-06T14:37:12;12.30;99.90
68354;DHT22;55274;43.060;25.618;2024-03-06T14:39:38;12.40;99.90
68354;DHT22;55274;43.060;25.618;2024-03-06T14:42:05;12.40;99.90
68354;DHT22;55274;43.060;25.618;2024-03-06T14:44:31;12.50;99.90
68354;DHT22;55274;43.060;25.618;2024-03-06T14:46:57;12.40;99.90
68354;DHT22;55274;43.060;25.618;2024-03-06T14:49:23;12.50;99.70
68354;DHT22;55274;43.060;25.618;2024-03-06T14:51:49;12.40;99.90
68354;DHT22;55274;43.060;25.618;2024-03-06T14:54:14;12.40;99.90
68354;DHT22;55274;43.060;25.618;2024-03-06T14:56:41;12.50;99.90
68354;DHT22;55274;43.060;25.618;2024-03-06T14:59:07;12.40;99.90
68354;DHT22;55274;43.060;25.618;2024-03-06T15:01:32;12.40;99.90
68354;DHT22;55274;43.060;25.618;2024-03-06T15:03:58;12.40;99.70
68354;DHT22;55274;43.060;25.618;2024-03-06T15:06:24;12.40;99.20
68354;DHT22;55274;43.060;25.618;2024-03-06T15:08:50;12.30;99.30
68354;DHT22;55274;43.060;25.618;2024-03-06T15:11:16;12.30;99.90
68354;DHT22;55274;43.060;25.618;2024-03-06T15:13:42;12.30;99.90
68354;DHT22;55274;43.060;25.618;2024-03-06T15:16:08;12.20;99.90
68354;DHT22;55274;43.060;25.618;2024-03-06T15:18:36;12.20;99.60
68354;DHT22;55274;43.060;25.618;2024-03-06T15:21:03;12.20;99.30
68354;DHT22;55274;43.060;25.618;2024-03-06T15:23:29;12.10;99.80
68354;DHT22;55274;43.060;25.618;2024-03-06T15:25:56;12.00;99.90
68354;DHT22;55274;43.060;25.618;2024-03-06T15:28:22;12.00;99.90
68354;DHT22;55274;43.060;25.618;2024-03-06T15:30:48;11.90;99.90